sensor_id;sensor_type;location;lat;lon;timestamp;P1;durP1;ratioP1;P2;durP2;ratioP2
20627;SDS011;10473;42.734;24.258;2022-07-03T00:02:16;4.63;;;4.17;;
20627;SDS011;10473;42.734;24.258;2022-07-03T00:04:44;4.87;;;4.20;;
20627;SDS011;10473;42.734;24.258;2022-07-03T00:07:12;4.73;;;4.13;;
20627;SDS011;10473;42.734;24.258;2022-07-03T00:09:40;4.60;;;4.20;;
20627;SDS011;10473;42.734;24.258;2022-07-03T00:12:08;6.07;;;4.10;;
20627;SDS011;10473;42.734;24.258;2022-07-03T00:14:36;4.27;;;3.70;;
20627;SDS011;10473;42.734;24.258;2022-07-03T00:17:05;4.43;;;4.03;;
20627;SDS011;10473;42.734;24.258;2022-07-03T00:19:33;5.53;;;4.83;;
20627;SDS011;10473;42.734;24.258;2022-07-03T00:22:02;4.97;;;4.40;;
20627;SDS011;10473;42.734;24.258;2022-07-03T00:24:32;4.77;;;4.30;;
20627;SDS011;10473;42.734;24.258;2022-07-03T00:27:05;7.87;;;3.83;;
20627;SDS011;10473;42.734;24.258;2022-07-03T00:29:36;6.90;;;4.80;;
20627;SDS011;10473;42.734;24.258;2022-07-03T00:32:08;4.53;;;4.03;;
20627;SDS011;10473;42.734;24.258;2022-07-03T00:34:37;4.60;;;3.93;;
20627;SDS011;10473;42.734;24.258;2022-07-03T00:37:06;4.97;;;4.23;;
20627;SDS011;10473;42.734;24.258;2022-07-03T00:39:35;6.00;;;4.40;;
20627;SDS011;10473;42.734;24.258;2022-07-03T00:42:04;5.67;;;4.40;;
20627;SDS011;10473;42.734;24.258;2022-07-03T00:44:33;5.13;;;4.20;;
20627;SDS011;10473;42.734;24.258;2022-07-03T00:47:04;4.20;;;3.80;;
20627;SDS011;10473;42.734;24.258;2022-07-03T00:49:36;4.30;;;3.90;;
20627;SDS011;10473;42.734;24.258;2022-07-03T00:52:05;4.47;;;4.07;;
20627;SDS011;10473;42.734;24.258;2022-07-03T00:54:35;3.93;;;3.53;;
20627;SDS011;10473;42.734;24.258;2022-07-03T00:57:12;7.37;;;3.93;;
20627;SDS011;10473;42.734;24.258;2022-07-03T00:59:41;4.40;;;3.87;;
20627;SDS011;10473;42.734;24.258;2022-07-03T01:02:11;4.40;;;4.00;;
20627;SDS011;10473;42.734;24.258;2022-07-03T01:04:52;5.00;;;3.63;;
20627;SDS011;10473;42.734;24.258;2022-07-03T01:07:29;4.43;;;4.03;;
20627;SDS011;10473;42.734;24.258;2022-07-03T01:10:04;5.40;;;4.40;;
20627;SDS011;10473;42.734;24.258;2022-07-03T01:12:40;6.20;;;4.10;;
20627;SDS011;10473;42.734;24.258;2022-07-03T01:15:23;4.27;;;3.87;;
20627;SDS011;10473;42.734;24.258;2022-07-03T01:18:06;4.30;;;3.90;;
20627;SDS011;10473;42.734;24.258;2022-07-03T01:20:42;5.67;;;4.30;;
20627;SDS011;10473;42.734;24.258;2022-07-03T01:23:17;4.57;;;4.13;;
20627;SDS011;10473;42.734;24.258;2022-07-03T01:25:53;8.13;;;4.57;;
20627;SDS011;10473;42.734;24.258;2022-07-03T01:28:22;4.57;;;3.80;;
20627;SDS011;10473;42.734;24.258;2022-07-03T01:30:51;4.60;;;3.90;;
20627;SDS011;10473;42.734;24.258;2022-07-03T01:33:21;4.63;;;4.00;;
20627;SDS011;10473;42.734;24.258;2022-07-03T01:35:54;4.87;;;4.40;;
20627;SDS011;10473;42.734;24.258;2022-07-03T01:38:29;5.20;;;3.87;;
20627;SDS011;10473;42.734;24.258;2022-07-03T01:41:00;4.90;;;4.13;;
20627;SDS011;10473;42.734;24.258;2022-07-03T01:43:30;6.40;;;4.40;;
20627;SDS011;10473;42.734;24.258;2022-07-03T01:45:59;8.13;;;4.20;;
20627;SDS011;10473;42.734;24.258;2022-07-03T01:48:29;5.03;;;4.40;;
20627;SDS011;10473;42.734;24.258;2022-07-03T01:50:59;6.23;;;4.50;;
20627;SDS011;10473;42.734;24.258;2022-07-03T01:53:28;5.40;;;4.00;;
20627;SDS011;10473;42.734;24.258;2022-07-03T01:55:58;5.57;;;4.13;;
20627;SDS011;10473;42.734;24.258;2022-07-03T01:58:29;4.73;;;4.27;;
20627;SDS011;10473;42.734;24.258;2022-07-03T02:00:57;5.00;;;4.50;;
20627;SDS011;10473;42.734;24.258;2022-07-03T02:03:30;5.73;;;4.00;;
20627;SDS011;10473;42.734;24.258;2022-07-03T02:06:02;6.87;;;4.40;;
20627;SDS011;10473;42.734;24.258;2022-07-03T02:08:35;7.00;;;4.30;;
20627;SDS011;10473;42.734;24.258;2022-07-03T02:11:13;4.63;;;4.23;;
20627;SDS011;10473;42.734;24.258;2022-07-03T02:13:50;4.47;;;4.07;;
20627;SDS011;10473;42.734;24.258;2022-07-03T02:16:23;4.33;;;3.93;;
20627;SDS011;10473;42.734;24.258;2022-07-03T02:18:56;6.67;;;4.50;;
20627;SDS011;10473;42.734;24.258;2022-07-03T02:21:26;6.10;;;4.10;;
20627;SDS011;10473;42.734;24.258;2022-07-03T02:23:58;4.63;;;4.20;;
20627;SDS011;10473;42.734;24.258;2022-07-03T02:26:37;4.77;;;4.30;;
20627;SDS011;10473;42.734;24.258;2022-07-03T02:29:07;4.73;;;3.67;;
20627;SDS011;10473;42.734;24.258;2022-07-03T02:31:42;5.80;;;4.47;;
20627;SDS011;10473;42.734;24.258;2022-07-03T02:34:13;5.47;;;4.17;;
20627;SDS011;10473;42.734;24.258;2022-07-03T02:36:44;5.97;;;3.97;;
20627;SDS011;10473;42.734;24.258;2022-07-03T02:39:14;4.37;;;3.97;;
20627;SDS011;10473;42.734;24.258;2022-07-03T02:41:59;4.50;;;4.10;;
20627;SDS011;10473;42.734;24.258;2022-07-03T02:44:31;7.03;;;4.90;;
20627;SDS011;10473;42.734;24.258;2022-07-03T02:47:03;5.47;;;3.90;;
20627;SDS011;10473;42.734;24.258;2022-07-03T02:49:41;4.03;;;3.63;;
20627;SDS011;10473;42.734;24.258;2022-07-03T02:52:13;4.70;;;4.10;;
20627;SDS011;10473;42.734;24.258;2022-07-03T02:54:47;6.27;;;4.87;;
20627;SDS011;10473;42.734;24.258;2022-07-03T02:57:19;3.73;;;3.40;;
20627;SDS011;10473;42.734;24.258;2022-07-03T02:59:55;5.40;;;4.33;;
20627;SDS011;10473;42.734;24.258;2022-07-03T03:02:40;7.00;;;4.33;;
20627;SDS011;10473;42.734;24.258;2022-07-03T03:05:21;6.20;;;4.63;;
20627;SDS011;10473;42.734;24.258;2022-07-03T03:07:58;4.20;;;3.80;;
20627;SDS011;10473;42.734;24.258;2022-07-03T03:10:29;4.83;;;4.27;;
20627;SDS011;10473;42.734;24.258;2022-07-03T03:13:03;4.93;;;4.43;;
20627;SDS011;10473;42.734;24.258;2022-07-03T03:15:33;5.10;;;4.60;;
20627;SDS011;10473;42.734;24.258;2022-07-03T03:18:02;5.20;;;3.87;;
20627;SDS011;10473;42.734;24.258;2022-07-03T03:20:33;5.53;;;4.60;;
20627;SDS011;10473;42.734;24.258;2022-07-03T03:23:10;4.33;;;3.93;;
20627;SDS011;10473;42.734;24.258;2022-07-03T03:25:44;5.53;;;4.43;;
20627;SDS011;10473;42.734;24.258;2022-07-03T03:28:13;4.60;;;4.20;;
20627;SDS011;10473;42.734;24.258;2022-07-03T03:30:41;4.73;;;4.30;;
20627;SDS011;10473;42.734;24.258;2022-07-03T03:33:09;4.47;;;3.97;;
20627;SDS011;10473;42.734;24.258;2022-07-03T03:35:38;6.23;;;4.17;;
20627;SDS011;10473;42.734;24.258;2022-07-03T03:38:06;6.23;;;4.03;;
20627;SDS011;10473;42.734;24.258;2022-07-03T03:40:34;4.70;;;4.20;;
20627;SDS011;10473;42.734;24.258;2022-07-03T03:43:02;5.77;;;4.20;;
20627;SDS011;10473;42.734;24.258;2022-07-03T03:45:31;4.47;;;4.07;;
20627;SDS011;10473;42.734;24.258;2022-07-03T03:47:59;5.97;;;4.77;;
20627;SDS011;10473;42.734;24.258;2022-07-03T03:50:27;5.00;;;4.43;;
20627;SDS011;10473;42.734;24.258;2022-07-03T03:52:55;4.87;;;4.23;;
20627;SDS011;10473;42.734;24.258;2022-07-03T03:55:25;6.00;;;5.00;;
20627;SDS011;10473;42.734;24.258;2022-07-03T03:57:53;4.43;;;4.03;;
20627;SDS011;10473;42.734;24.258;2022-07-03T04:00:21;4.80;;;4.40;;
20627;SDS011;10473;42.734;24.258;2022-07-03T04:02:50;5.77;;;5.00;;
20627;SDS011;10473;42.734;24.258;2022-07-03T04:05:18;4.90;;;4.40;;
20627;SDS011;10473;42.734;24.258;2022-07-03T04:07:45;6.30;;;5.00;;
20627;SDS011;10473;42.734;24.258;2022-07-03T04:10:13;6.77;;;4.80;;
20627;SDS011;10473;42.734;24.258;2022-07-03T04:12:41;6.93;;;4.60;;
20627;SDS011;10473;42.734;24.258;2022-07-03T04:15:09;6.07;;;4.57;;
20627;SDS011;10473;42.734;24.258;2022-07-03T04:17:37;7.10;;;4.93;;
20627;SDS011;10473;42.734;24.258;2022-07-03T04:20:06;7.57;;;4.87;;
20627;SDS011;10473;42.734;24.258;2022-07-03T04:22:35;8.70;;;5.20;;
20627;SDS011;10473;42.734;24.258;2022-07-03T04:25:03;6.10;;;5.30;;
20627;SDS011;10473;42.734;24.258;2022-07-03T04:27:31;5.13;;;4.63;;
20627;SDS011;10473;42.734;24.258;2022-07-03T04:30:00;8.00;;;5.10;;
20627;SDS011;10473;42.734;24.258;2022-07-03T04:32:28;6.23;;;5.63;;
20627;SDS011;10473;42.734;24.258;2022-07-03T04:34:56;8.20;;;5.40;;
20627;SDS011;10473;42.734;24.258;2022-07-03T04:37:25;6.50;;;5.43;;
20627;SDS011;10473;42.734;24.258;2022-07-03T04:39:52;6.50;;;5.80;;
20627;SDS011;10473;42.734;24.258;2022-07-03T04:42:20;8.07;;;5.90;;
20627;SDS011;10473;42.734;24.258;2022-07-03T04:44:48;7.63;;;6.17;;
20627;SDS011;10473;42.734;24.258;2022-07-03T04:47:15;7.30;;;6.57;;
20627;SDS011;10473;42.734;24.258;2022-07-03T04:49:43;8.70;;;6.13;;
20627;SDS011;10473;42.734;24.258;2022-07-03T04:52:11;10.43;;;6.47;;
20627;SDS011;10473;42.734;24.258;2022-07-03T04:54:41;8.60;;;6.60;;
20627;SDS011;10473;42.734;24.258;2022-07-03T04:57:09;7.93;;;6.00;;
20627;SDS011;10473;42.734;24.258;2022-07-03T04:59:37;6.93;;;5.57;;
20627;SDS011;10473;42.734;24.258;2022-07-03T05:02:05;7.27;;;6.10;;
20627;SDS011;10473;42.734;24.258;2022-07-03T05:04:32;6.07;;;5.47;;
20627;SDS011;10473;42.734;24.258;2022-07-03T05:07:00;5.97;;;5.40;;
20627;SDS011;10473;42.734;24.258;2022-07-03T05:09:28;8.50;;;6.30;;
20627;SDS011;10473;42.734;24.258;2022-07-03T05:11:57;6.40;;;5.77;;
20627;SDS011;10473;42.734;24.258;2022-07-03T05:14:25;7.77;;;5.83;;
20627;SDS011;10473;42.734;24.258;2022-07-03T05:16:52;7.10;;;6.37;;
20627;SDS011;10473;42.734;24.258;2022-07-03T05:19:20;8.43;;;6.47;;
20627;SDS011;10473;42.734;24.258;2022-07-03T05:21:48;7.03;;;6.33;;
20627;SDS011;10473;42.734;24.258;2022-07-03T05:24:15;7.83;;;7.03;;
20627;SDS011;10473;42.734;24.258;2022-07-03T05:26:43;10.10;;;6.50;;
20627;SDS011;10473;42.734;24.258;2022-07-03T05:29:12;6.57;;;5.70;;
20627;SDS011;10473;42.734;24.258;2022-07-03T05:31:40;7.90;;;5.63;;
20627;SDS011;10473;42.734;24.258;2022-07-03T05:34:07;7.70;;;6.33;;
20627;SDS011;10473;42.734;24.258;2022-07-03T05:36:35;6.77;;;5.90;;
20627;SDS011;10473;42.734;24.258;2022-07-03T05:39:03;6.07;;;5.47;;
20627;SDS011;10473;42.734;24.258;2022-07-03T05:41:54;6.20;;;5.60;;
20627;SDS011;10473;42.734;24.258;2022-07-03T05:44:23;6.57;;;5.83;;
20627;SDS011;10473;42.734;24.258;2022-07-03T05:46:51;6.80;;;5.30;;
20627;SDS011;10473;42.734;24.258;2022-07-03T05:49:18;6.80;;;5.60;;
20627;SDS011;10473;42.734;24.258;2022-07-03T05:51:46;6.00;;;5.40;;
20627;SDS011;10473;42.734;24.258;2022-07-03T05:54:14;8.73;;;5.00;;
20627;SDS011;10473;42.734;24.258;2022-07-03T05:56:42;6.37;;;5.67;;
20627;SDS011;10473;42.734;24.258;2022-07-03T05:59:10;8.53;;;5.20;;
20627;SDS011;10473;42.734;24.258;2022-07-03T06:01:39;6.00;;;5.30;;
20627;SDS011;10473;42.734;24.258;2022-07-03T06:04:06;6.37;;;4.67;;
20627;SDS011;10473;42.734;24.258;2022-07-03T06:06:34;5.17;;;4.37;;
20627;SDS011;10473;42.734;24.258;2022-07-03T06:09:02;5.20;;;3.87;;
20627;SDS011;10473;42.734;24.258;2022-07-03T06:11:30;7.87;;;4.40;;
20627;SDS011;10473;42.734;24.258;2022-07-03T06:13:58;4.80;;;4.40;;
20627;SDS011;10473;42.734;24.258;2022-07-03T06:16:25;4.47;;;3.93;;
20627;SDS011;10473;42.734;24.258;2022-07-03T06:18:54;6.53;;;4.13;;
20627;SDS011;10473;42.734;24.258;2022-07-03T06:21:22;5.60;;;4.43;;
20627;SDS011;10473;42.734;24.258;2022-07-03T06:23:50;4.90;;;4.23;;
20627;SDS011;10473;42.734;24.258;2022-07-03T06:26:18;5.73;;;5.17;;
20627;SDS011;10473;42.734;24.258;2022-07-03T06:28:45;5.03;;;4.47;;
20627;SDS011;10473;42.734;24.258;2022-07-03T06:31:13;4.83;;;4.20;;
20627;SDS011;10473;42.734;24.258;2022-07-03T06:33:41;5.57;;;5.07;;
20627;SDS011;10473;42.734;24.258;2022-07-03T06:36:10;6.17;;;5.20;;
20627;SDS011;10473;42.734;24.258;2022-07-03T06:38:37;4.93;;;4.23;;
20627;SDS011;10473;42.734;24.258;2022-07-03T06:41:05;5.77;;;4.83;;
20627;SDS011;10473;42.734;24.258;2022-07-03T06:43:33;5.30;;;4.80;;
20627;SDS011;10473;42.734;24.258;2022-07-03T06:46:01;8.53;;;4.83;;
20627;SDS011;10473;42.734;24.258;2022-07-03T06:48:28;5.57;;;4.90;;
20627;SDS011;10473;42.734;24.258;2022-07-03T06:50:56;5.10;;;4.53;;
20627;SDS011;10473;42.734;24.258;2022-07-03T06:53:25;5.73;;;4.77;;
20627;SDS011;10473;42.734;24.258;2022-07-03T06:55:53;5.90;;;5.37;;
20627;SDS011;10473;42.734;24.258;2022-07-03T06:58:21;5.10;;;4.60;;
20627;SDS011;10473;42.734;24.258;2022-07-03T07:00:48;6.10;;;4.30;;
20627;SDS011;10473;42.734;24.258;2022-07-03T07:03:16;5.17;;;4.63;;
20627;SDS011;10473;42.734;24.258;2022-07-03T07:05:44;7.17;;;4.57;;
20627;SDS011;10473;42.734;24.258;2022-07-03T07:08:11;4.63;;;4.23;;
20627;SDS011;10473;42.734;24.258;2022-07-03T07:10:41;5.60;;;5.10;;
20627;SDS011;10473;42.734;24.258;2022-07-03T07:13:08;5.00;;;4.60;;
20627;SDS011;10473;42.734;24.258;2022-07-03T07:15:36;5.03;;;4.53;;
20627;SDS011;10473;42.734;24.258;2022-07-03T07:18:04;4.90;;;4.20;;
20627;SDS011;10473;42.734;24.258;2022-07-03T07:20:32;4.63;;;4.23;;
20627;SDS011;10473;42.734;24.258;2022-07-03T07:22:59;4.70;;;4.30;;
20627;SDS011;10473;42.734;24.258;2022-07-03T07:25:27;4.77;;;4.33;;
20627;SDS011;10473;42.734;24.258;2022-07-03T07:27:57;5.67;;;4.60;;
20627;SDS011;10473;42.734;24.258;2022-07-03T07:30:24;7.47;;;4.70;;
20627;SDS011;10473;42.734;24.258;2022-07-03T07:32:52;7.30;;;4.70;;
20627;SDS011;10473;42.734;24.258;2022-07-03T07:35:20;5.53;;;4.77;;
20627;SDS011;10473;42.734;24.258;2022-07-03T07:37:48;6.53;;;4.67;;
20627;SDS011;10473;42.734;24.258;2022-07-03T07:40:15;5.77;;;4.07;;
20627;SDS011;10473;42.734;24.258;2022-07-03T07:42:43;4.97;;;4.07;;
20627;SDS011;10473;42.734;24.258;2022-07-03T07:45:12;4.80;;;4.30;;
20627;SDS011;10473;42.734;24.258;2022-07-03T07:47:40;6.27;;;4.70;;
20627;SDS011;10473;42.734;24.258;2022-07-03T07:50:09;5.43;;;4.93;;
20627;SDS011;10473;42.734;24.258;2022-07-03T07:52:37;4.53;;;4.10;;
20627;SDS011;10473;42.734;24.258;2022-07-03T07:55:05;5.47;;;4.40;;
20627;SDS011;10473;42.734;24.258;2022-07-03T07:57:34;4.90;;;4.40;;
20627;SDS011;10473;42.734;24.258;2022-07-03T08:00:06;5.23;;;4.73;;
20627;SDS011;10473;42.734;24.258;2022-07-03T08:02:40;5.77;;;5.17;;
20627;SDS011;10473;42.734;24.258;2022-07-03T08:05:26;5.97;;;5.37;;
20627;SDS011;10473;42.734;24.258;2022-07-03T08:08:04;7.30;;;5.47;;
20627;SDS011;10473;42.734;24.258;2022-07-03T08:10:34;9.60;;;7.60;;
20627;SDS011;10473;42.734;24.258;2022-07-03T08:13:03;8.33;;;7.37;;
20627;SDS011;10473;42.734;24.258;2022-07-03T08:15:31;8.90;;;7.40;;
20627;SDS011;10473;42.734;24.258;2022-07-03T08:18:00;8.73;;;7.83;;
20627;SDS011;10473;42.734;24.258;2022-07-03T08:20:28;10.37;;;7.33;;
20627;SDS011;10473;42.734;24.258;2022-07-03T08:22:57;8.37;;;7.10;;
20627;SDS011;10473;42.734;24.258;2022-07-03T08:25:25;7.23;;;6.53;;
20627;SDS011;10473;42.734;24.258;2022-07-03T08:27:53;9.47;;;6.23;;
20627;SDS011;10473;42.734;24.258;2022-07-03T08:30:20;8.73;;;6.23;;
20627;SDS011;10473;42.734;24.258;2022-07-03T08:32:49;8.60;;;6.30;;
20627;SDS011;10473;42.734;24.258;2022-07-03T08:35:20;10.93;;;6.60;;
20627;SDS011;10473;42.734;24.258;2022-07-03T08:37:48;8.73;;;7.43;;
20627;SDS011;10473;42.734;24.258;2022-07-03T08:40:17;8.53;;;6.60;;
20627;SDS011;10473;42.734;24.258;2022-07-03T08:42:46;8.60;;;7.70;;
20627;SDS011;10473;42.734;24.258;2022-07-03T08:45:16;7.33;;;6.03;;
20627;SDS011;10473;42.734;24.258;2022-07-03T08:47:45;10.87;;;7.03;;
20627;SDS011;10473;42.734;24.258;2022-07-03T08:50:15;7.83;;;5.63;;
20627;SDS011;10473;42.734;24.258;2022-07-03T08:52:46;11.30;;;5.77;;
20627;SDS011;10473;42.734;24.258;2022-07-03T08:55:15;6.93;;;5.93;;
20627;SDS011;10473;42.734;24.258;2022-07-03T08:57:45;7.10;;;6.07;;
20627;SDS011;10473;42.734;24.258;2022-07-03T09:00:15;8.53;;;5.90;;
20627;SDS011;10473;42.734;24.258;2022-07-03T09:02:45;7.23;;;6.00;;
20627;SDS011;10473;42.734;24.258;2022-07-03T09:05:16;6.97;;;5.97;;
20627;SDS011;10473;42.734;24.258;2022-07-03T09:07:46;6.63;;;5.93;;
20627;SDS011;10473;42.734;24.258;2022-07-03T09:10:15;6.70;;;6.00;;
20627;SDS011;10473;42.734;24.258;2022-07-03T09:12:45;7.63;;;6.37;;
20627;SDS011;10473;42.734;24.258;2022-07-03T09:15:13;9.10;;;5.90;;
20627;SDS011;10473;42.734;24.258;2022-07-03T09:17:55;6.07;;;5.47;;
20627;SDS011;10473;42.734;24.258;2022-07-03T09:20:28;7.90;;;5.93;;
20627;SDS011;10473;42.734;24.258;2022-07-03T09:25:55;12.03;;;7.13;;
20627;SDS011;10473;42.734;24.258;2022-07-03T09:28:24;8.50;;;6.50;;
20627;SDS011;10473;42.734;24.258;2022-07-03T09:31:09;8.80;;;6.57;;
20627;SDS011;10473;42.734;24.258;2022-07-03T09:33:47;8.90;;;6.43;;
20627;SDS011;10473;42.734;24.258;2022-07-03T09:36:17;8.20;;;6.23;;
20627;SDS011;10473;42.734;24.258;2022-07-03T09:38:45;6.50;;;5.80;;
20627;SDS011;10473;42.734;24.258;2022-07-03T09:41:14;8.70;;;6.07;;
20627;SDS011;10473;42.734;24.258;2022-07-03T09:43:43;10.33;;;6.00;;
20627;SDS011;10473;42.734;24.258;2022-07-03T09:46:11;6.50;;;5.50;;
20627;SDS011;10473;42.734;24.258;2022-07-03T09:48:39;6.50;;;5.80;;
20627;SDS011;10473;42.734;24.258;2022-07-03T09:51:12;6.23;;;5.63;;
20627;SDS011;10473;42.734;24.258;2022-07-03T09:53:48;7.17;;;6.37;;
20627;SDS011;10473;42.734;24.258;2022-07-03T09:56:19;6.37;;;5.77;;
20627;SDS011;10473;42.734;24.258;2022-07-03T09:59:05;7.17;;;5.03;;
20627;SDS011;10473;42.734;24.258;2022-07-03T10:01:34;10.27;;;6.20;;
20627;SDS011;10473;42.734;24.258;2022-07-03T10:04:13;7.33;;;6.43;;
20627;SDS011;10473;42.734;24.258;2022-07-03T10:06:49;6.73;;;6.03;;
20627;SDS011;10473;42.734;24.258;2022-07-03T10:09:23;8.73;;;7.03;;
20627;SDS011;10473;42.734;24.258;2022-07-03T10:11:53;10.50;;;7.37;;
20627;SDS011;10473;42.734;24.258;2022-07-03T10:14:23;7.97;;;7.07;;
20627;SDS011;10473;42.734;24.258;2022-07-03T10:16:52;8.47;;;6.23;;
20627;SDS011;10473;42.734;24.258;2022-07-03T10:19:22;9.67;;;6.20;;
20627;SDS011;10473;42.734;24.258;2022-07-03T10:21:53;7.87;;;5.57;;
20627;SDS011;10473;42.734;24.258;2022-07-03T10:24:22;6.40;;;5.80;;
20627;SDS011;10473;42.734;24.258;2022-07-03T10:26:51;5.97;;;5.13;;
20627;SDS011;10473;42.734;24.258;2022-07-03T10:29:21;5.87;;;5.13;;
20627;SDS011;10473;42.734;24.258;2022-07-03T10:31:50;5.83;;;5.33;;
20627;SDS011;10473;42.734;24.258;2022-07-03T10:34:19;6.10;;;5.00;;
20627;SDS011;10473;42.734;24.258;2022-07-03T10:36:49;5.10;;;4.50;;
20627;SDS011;10473;42.734;24.258;2022-07-03T10:39:25;5.47;;;4.90;;
20627;SDS011;10473;42.734;24.258;2022-07-03T10:42:11;6.13;;;5.20;;
20627;SDS011;10473;42.734;24.258;2022-07-03T10:45:07;6.60;;;5.07;;
20627;SDS011;10473;42.734;24.258;2022-07-03T10:47:47;5.73;;;4.93;;
20627;SDS011;10473;42.734;24.258;2022-07-03T10:50:15;5.93;;;4.70;;
20627;SDS011;10473;42.734;24.258;2022-07-03T10:52:44;5.80;;;4.50;;
20627;SDS011;10473;42.734;24.258;2022-07-03T10:55:13;5.30;;;4.57;;
20627;SDS011;10473;42.734;24.258;2022-07-03T10:57:43;6.03;;;5.23;;
20627;SDS011;10473;42.734;24.258;2022-07-03T11:00:31;5.30;;;4.67;;
20627;SDS011;10473;42.734;24.258;2022-07-03T11:09:30;5.53;;;5.03;;
20627;SDS011;10473;42.734;24.258;2022-07-03T11:11:58;5.20;;;4.73;;
20627;SDS011;10473;42.734;24.258;2022-07-03T11:14:28;5.60;;;4.27;;
20627;SDS011;10473;42.734;24.258;2022-07-03T11:17:15;5.73;;;5.13;;
20627;SDS011;10473;42.734;24.258;2022-07-03T11:19:43;4.97;;;4.47;;
20627;SDS011;10473;42.734;24.258;2022-07-03T11:22:34;5.43;;;4.87;;
20627;SDS011;10473;42.734;24.258;2022-07-03T11:25:11;5.20;;;4.70;;
20627;SDS011;10473;42.734;24.258;2022-07-03T11:27:41;4.93;;;4.37;;
20627;SDS011;10473;42.734;24.258;2022-07-03T11:30:10;5.53;;;5.03;;
20627;SDS011;10473;42.734;24.258;2022-07-03T11:32:48;5.37;;;4.77;;
20627;SDS011;10473;42.734;24.258;2022-07-03T11:38:15;5.80;;;5.20;;
20627;SDS011;10473;42.734;24.258;2022-07-03T11:40:44;6.00;;;5.13;;
20627;SDS011;10473;42.734;24.258;2022-07-03T11:43:14;7.93;;;5.40;;
20627;SDS011;10473;42.734;24.258;2022-07-03T11:45:43;5.97;;;5.00;;
20627;SDS011;10473;42.734;24.258;2022-07-03T11:48:14;5.07;;;4.57;;
20627;SDS011;10473;42.734;24.258;2022-07-03T11:50:44;9.07;;;5.23;;
20627;SDS011;10473;42.734;24.258;2022-07-03T11:53:19;5.43;;;4.93;;
20627;SDS011;10473;42.734;24.258;2022-07-03T11:55:48;5.70;;;5.20;;
20627;SDS011;10473;42.734;24.258;2022-07-03T11:58:17;5.90;;;4.97;;
20627;SDS011;10473;42.734;24.258;2022-07-03T12:00:47;7.33;;;5.30;;
20627;SDS011;10473;42.734;24.258;2022-07-03T12:03:21;6.07;;;5.47;;
20627;SDS011;10473;42.734;24.258;2022-07-03T12:05:54;6.10;;;5.57;;
20627;SDS011;10473;42.734;24.258;2022-07-03T12:08:27;6.20;;;5.60;;
20627;SDS011;10473;42.734;24.258;2022-07-03T12:10:57;6.07;;;5.40;;
20627;SDS011;10473;42.734;24.258;2022-07-03T12:13:26;7.03;;;4.77;;
20627;SDS011;10473;42.734;24.258;2022-07-03T12:16:07;6.77;;;5.17;;
20627;SDS011;10473;42.734;24.258;2022-07-03T12:18:46;7.03;;;5.60;;
20627;SDS011;10473;42.734;24.258;2022-07-03T12:21:16;10.43;;;6.17;;
20627;SDS011;10473;42.734;24.258;2022-07-03T12:23:45;6.67;;;5.83;;
20627;SDS011;10473;42.734;24.258;2022-07-03T12:26:26;6.93;;;5.63;;
20627;SDS011;10473;42.734;24.258;2022-07-03T12:28:56;7.10;;;5.67;;
20627;SDS011;10473;42.734;24.258;2022-07-03T12:31:26;6.73;;;5.90;;
20627;SDS011;10473;42.734;24.258;2022-07-03T12:33:55;8.07;;;6.20;;
20627;SDS011;10473;42.734;24.258;2022-07-03T12:36:24;6.60;;;5.80;;
20627;SDS011;10473;42.734;24.258;2022-07-03T12:38:52;7.60;;;5.90;;
20627;SDS011;10473;42.734;24.258;2022-07-03T12:41:21;6.07;;;5.47;;
20627;SDS011;10473;42.734;24.258;2022-07-03T12:43:50;6.40;;;5.80;;
20627;SDS011;10473;42.734;24.258;2022-07-03T12:46:19;6.20;;;5.60;;
20627;SDS011;10473;42.734;24.258;2022-07-03T12:48:51;6.87;;;6.17;;
20627;SDS011;10473;42.734;24.258;2022-07-03T12:51:40;7.33;;;6.10;;
20627;SDS011;10473;42.734;24.258;2022-07-03T12:54:08;7.03;;;6.13;;
20627;SDS011;10473;42.734;24.258;2022-07-03T12:56:38;6.20;;;5.60;;
20627;SDS011;10473;42.734;24.258;2022-07-03T12:59:06;6.80;;;6.20;;
20627;SDS011;10473;42.734;24.258;2022-07-03T13:01:45;10.13;;;7.63;;
20627;SDS011;10473;42.734;24.258;2022-07-03T13:04:31;7.10;;;6.20;;
20627;SDS011;10473;42.734;24.258;2022-07-03T13:07:00;6.30;;;5.70;;
20627;SDS011;10473;42.734;24.258;2022-07-03T13:09:28;5.47;;;4.90;;
20627;SDS011;10473;42.734;24.258;2022-07-03T13:11:56;6.53;;;4.87;;
20627;SDS011;10473;42.734;24.258;2022-07-03T13:14:24;4.93;;;4.43;;
20627;SDS011;10473;42.734;24.258;2022-07-03T13:16:52;5.63;;;5.03;;
20627;SDS011;10473;42.734;24.258;2022-07-03T13:19:21;5.83;;;5.23;;
20627;SDS011;10473;42.734;24.258;2022-07-03T13:21:52;6.30;;;4.70;;
20627;SDS011;10473;42.734;24.258;2022-07-03T13:24:21;5.10;;;4.60;;
20627;SDS011;10473;42.734;24.258;2022-07-03T13:26:49;5.07;;;4.57;;
20627;SDS011;10473;42.734;24.258;2022-07-03T13:29:18;4.73;;;4.20;;
20627;SDS011;10473;42.734;24.258;2022-07-03T13:31:46;6.07;;;4.80;;
20627;SDS011;10473;42.734;24.258;2022-07-03T13:34:15;5.20;;;4.67;;
20627;SDS011;10473;42.734;24.258;2022-07-03T13:36:43;5.40;;;4.90;;
20627;SDS011;10473;42.734;24.258;2022-07-03T13:39:12;5.33;;;4.43;;
20627;SDS011;10473;42.734;24.258;2022-07-03T13:41:40;5.37;;;4.47;;
20627;SDS011;10473;42.734;24.258;2022-07-03T13:44:07;6.93;;;5.40;;
20627;SDS011;10473;42.734;24.258;2022-07-03T13:46:35;5.50;;;4.40;;
20627;SDS011;10473;42.734;24.258;2022-07-03T13:49:03;5.23;;;4.33;;
20627;SDS011;10473;42.734;24.258;2022-07-03T13:51:30;6.67;;;5.00;;
20627;SDS011;10473;42.734;24.258;2022-07-03T13:53:59;4.97;;;4.37;;
20627;SDS011;10473;42.734;24.258;2022-07-03T13:56:28;7.50;;;5.47;;
20627;SDS011;10473;42.734;24.258;2022-07-03T13:58:56;5.77;;;4.70;;
20627;SDS011;10473;42.734;24.258;2022-07-03T14:01:24;5.03;;;4.60;;
20627;SDS011;10473;42.734;24.258;2022-07-03T14:03:51;4.70;;;4.30;;
20627;SDS011;10473;42.734;24.258;2022-07-03T14:06:19;7.50;;;4.73;;
20627;SDS011;10473;42.734;24.258;2022-07-03T14:08:47;4.70;;;4.30;;
20627;SDS011;10473;42.734;24.258;2022-07-03T14:11:16;6.07;;;5.30;;
20627;SDS011;10473;42.734;24.258;2022-07-03T14:13:45;5.30;;;4.80;;
20627;SDS011;10473;42.734;24.258;2022-07-03T14:16:12;5.20;;;4.70;;
20627;SDS011;10473;42.734;24.258;2022-07-03T14:18:40;5.67;;;4.73;;
20627;SDS011;10473;42.734;24.258;2022-07-03T14:21:08;5.30;;;4.80;;
20627;SDS011;10473;42.734;24.258;2022-07-03T14:23:36;5.30;;;4.80;;
20627;SDS011;10473;42.734;24.258;2022-07-03T14:26:03;5.70;;;5.10;;
20627;SDS011;10473;42.734;24.258;2022-07-03T14:28:31;5.10;;;4.60;;
20627;SDS011;10473;42.734;24.258;2022-07-03T14:31:18;6.87;;;5.23;;
20627;SDS011;10473;42.734;24.258;2022-07-03T14:34:04;5.67;;;5.07;;
20627;SDS011;10473;42.734;24.258;2022-07-03T14:36:32;5.60;;;5.00;;
20627;SDS011;10473;42.734;24.258;2022-07-03T14:38:59;6.20;;;5.37;;
20627;SDS011;10473;42.734;24.258;2022-07-03T14:41:27;6.00;;;5.40;;
20627;SDS011;10473;42.734;24.258;2022-07-03T14:43:55;5.70;;;5.20;;
20627;SDS011;10473;42.734;24.258;2022-07-03T14:46:24;9.20;;;4.80;;
20627;SDS011;10473;42.734;24.258;2022-07-03T14:48:52;5.80;;;5.20;;
20627;SDS011;10473;42.734;24.258;2022-07-03T14:51:20;7.40;;;4.80;;
20627;SDS011;10473;42.734;24.258;2022-07-03T14:53:47;6.33;;;5.60;;
20627;SDS011;10473;42.734;24.258;2022-07-03T14:56:16;5.60;;;5.00;;
20627;SDS011;10473;42.734;24.258;2022-07-03T14:58:45;6.20;;;5.00;;
20627;SDS011;10473;42.734;24.258;2022-07-03T15:01:15;6.43;;;5.83;;
20627;SDS011;10473;42.734;24.258;2022-07-03T15:03:48;6.10;;;5.50;;
20627;SDS011;10473;42.734;24.258;2022-07-03T15:06:24;5.67;;;5.00;;